Terminal Aerodrome Forecast
Issued by NWS Tallahassee, FL

Home | Current Version | Previous Version | Text Only | Print | Product List | Glossary On
Versions: 1 2 3 4 5 6 7 8 9 10 11 12 13 14 15 16 17 18
000
FTUS42 KTAE 271738
TAFTLH
TAF
KTLH 271738Z 2718/2818 19006KT P6SM VCTS SCT030CB BKN250
      TEMPO 2718/2720 VRB10G20KT 3SM TSRA BKN030CB
     FM280200 08005KT P6SM SCT015 BKN250
      TEMPO 2811/2814 5SM BR BKN015=

USA.gov is the U.S. government's official web portal to all federal, state and local government web resources and services.